createdAt,value
2023-01-08T00:01:24.370Z,74.55
2023-01-08T00:03:53.363Z,72.45
2023-01-08T00:06:22.966Z,71.43
2023-01-08T00:08:52.454Z,71.65
2023-01-08T00:11:21.496Z,65.82
2023-01-08T00:13:50.567Z,68.00
2023-01-08T00:16:21.724Z,63.83
2023-01-08T00:18:51.013Z,65.18
2023-01-08T00:21:21.010Z,65.70
2023-01-08T00:23:50.084Z,62.75
2023-01-08T00:26:19.209Z,66.20
2023-01-08T00:28:49.291Z,64.20
2023-01-08T00:31:18.613Z,62.70
2023-01-08T00:33:49.120Z,68.18
2023-01-08T00:36:19.998Z,64.93
2023-01-08T00:38:49.133Z,65.70
2023-01-08T00:41:18.645Z,67.35
2023-01-08T00:43:47.687Z,67.95
2023-01-08T00:46:16.883Z,68.93
2023-01-08T00:48:45.955Z,68.43
2023-01-08T00:51:16.494Z,66.40
2023-01-08T00:53:45.589Z,65.32
2023-01-08T00:56:14.658Z,67.47
2023-01-08T00:58:43.726Z,68.10
2023-01-08T01:01:14.095Z,70.35
2023-01-08T01:03:43.884Z,67.63
2023-01-08T01:06:15.002Z,71.22
2023-01-08T01:08:45.788Z,72.28
2023-01-08T01:11:25.226Z,73.65
2023-01-08T01:13:55.907Z,71.40
2023-01-08T01:16:25.466Z,67.65
2023-01-08T01:18:55.753Z,74.13
2023-01-08T01:21:27.617Z,76.82
2023-01-08T01:24:00.397Z,77.68
2023-01-08T01:26:29.878Z,73.60
2023-01-08T01:29:00.187Z,69.97
2023-01-08T01:31:31.159Z,71.43
2023-01-08T01:34:00.776Z,69.70
2023-01-08T01:36:29.941Z,70.05
2023-01-08T01:39:00.619Z,69.47
2023-01-08T01:41:32.069Z,73.03
2023-01-08T01:44:02.878Z,72.78
2023-01-08T01:46:39.017Z,77.30
2023-01-08T01:49:15.591Z,73.38
2023-01-08T01:51:50.303Z,72.93
2023-01-08T01:54:22.425Z,73.55
2023-01-08T01:56:52.040Z,72.47
2023-01-08T01:59:21.119Z,71.55
2023-01-08T02:01:51.290Z,72.43
2023-01-08T02:04:20.718Z,76.60
2023-01-08T02:06:56.622Z,78.40
2023-01-08T02:09:37.036Z,77.93
2023-01-08T02:12:18.972Z,78.75
2023-01-08T02:15:05.264Z,78.28
2023-01-08T02:17:41.238Z,79.35
2023-01-08T02:20:14.249Z,80.35
2023-01-08T02:22:55.610Z,86.80
2023-01-08T02:25:37.264Z,81.20
2023-01-08T02:28:12.551Z,89.68
2023-01-08T02:30:41.771Z,88.30
2023-01-08T02:33:10.681Z,88.13
2023-01-08T02:35:43.822Z,90.65
2023-01-08T02:38:15.436Z,89.20
2023-01-08T02:40:54.894Z,88.53
2023-01-08T02:43:29.380Z,87.93
2023-01-08T02:46:02.752Z,95.30
2023-01-08T02:48:37.889Z,93.93
2023-01-08T02:51:11.834Z,94.45
2023-01-08T02:53:44.260Z,93.15
2023-01-08T02:56:16.552Z,85.82
2023-01-08T02:58:48.723Z,92.13
2023-01-08T03:01:19.820Z,93.90
2023-01-08T03:03:53.779Z,92.97
2023-01-08T03:06:24.198Z,91.05
2023-01-08T03:08:55.320Z,89.13
2023-01-08T03:11:26.501Z,91.88
2023-01-08T03:14:03.332Z,93.63
2023-01-08T03:16:37.310Z,85.93
2023-01-08T03:19:11.330Z,87.70
2023-01-08T03:21:41.806Z,90.70
2023-01-08T03:24:16.181Z,83.18
2023-01-08T03:26:48.454Z,81.43
2023-01-08T03:29:22.307Z,83.25
2023-01-08T03:31:54.353Z,81.13
2023-01-08T03:34:26.296Z,82.88
2023-01-08T03:36:57.250Z,89.90
2023-01-08T03:39:29.870Z,83.53
2023-01-08T03:42:02.090Z,87.20
2023-01-08T03:44:32.800Z,89.32
2023-01-08T03:47:01.962Z,87.88
2023-01-08T03:49:31.994Z,93.15
2023-01-08T03:52:01.120Z,90.78
2023-01-08T03:54:34.553Z,85.85
2023-01-08T03:57:03.841Z,88.30
2023-01-08T03:59:34.255Z,84.45
2023-01-08T04:02:03.546Z,79.28
2023-01-08T04:04:32.953Z,82.05
2023-01-08T04:07:01.994Z,78.43
2023-01-08T04:09:31.085Z,83.90
2023-01-08T04:12:00.337Z,86.72
2023-01-08T04:14:29.556Z,78.93
2023-01-08T04:17:00.027Z,79.55
2023-01-08T04:19:29.191Z,83.78
2023-01-08T04:21:58.203Z,82.88
2023-01-08T04:24:27.193Z,77.82
2023-01-08T04:27:14.912Z,79.43
2023-01-08T04:29:44.562Z,83.32
2023-01-08T04:32:15.110Z,86.57
2023-01-08T04:34:44.134Z,77.72
2023-01-08T04:37:13.162Z,68.72
2023-01-08T04:39:42.105Z,70.13
2023-01-08T04:42:11.157Z,66.70
2023-01-08T04:44:40.047Z,68.28
2023-01-08T04:47:08.988Z,65.68
2023-01-08T04:49:39.473Z,64.95
2023-01-08T04:52:08.513Z,65.50
2023-01-08T04:54:37.588Z,73.43
2023-01-08T04:57:06.526Z,65.35
2023-01-08T04:59:35.503Z,66.68
2023-01-08T05:02:04.823Z,69.55
2023-01-08T05:04:33.918Z,65.30
2023-01-08T05:07:05.498Z,64.30
2023-01-08T05:09:34.508Z,68.43
2023-01-08T05:12:03.498Z,73.63
2023-01-08T05:14:32.529Z,69.70
2023-01-08T05:17:01.453Z,73.90
2023-01-08T05:19:30.627Z,69.15
2023-01-08T05:21:59.737Z,71.40
2023-01-08T05:24:31.035Z,71.35
2023-01-08T05:27:00.216Z,73.10
2023-01-08T05:29:29.152Z,76.13
2023-01-08T05:31:58.284Z,75.47
2023-01-08T05:34:27.631Z,84.40
2023-01-08T05:36:56.605Z,73.72
2023-01-08T05:39:25.640Z,75.55
2023-01-08T05:41:56.198Z,85.28
2023-01-08T05:44:25.299Z,80.63
2023-01-08T05:46:55.277Z,80.03
2023-01-08T05:49:24.211Z,79.03
2023-01-08T05:51:53.412Z,91.97
2023-01-08T05:54:22.372Z,76.07
2023-01-08T05:56:51.417Z,77.05
2023-01-08T05:59:21.954Z,74.30
2023-01-08T06:01:51.257Z,76.55
2023-01-08T06:04:20.315Z,74.43
2023-01-08T06:06:49.489Z,76.85
2023-01-08T06:09:18.603Z,76.88
2023-01-08T06:11:47.590Z,75.72
2023-01-08T06:14:17.128Z,76.85
2023-01-08T06:16:47.864Z,73.53
2023-01-08T06:19:19.193Z,69.55
2023-01-08T06:21:48.428Z,76.43
2023-01-08T06:24:17.724Z,69.35
2023-01-08T06:26:46.702Z,72.53
2023-01-08T06:29:15.746Z,69.65
2023-01-08T06:31:44.869Z,62.67
2023-01-08T06:34:15.437Z,59.13
2023-01-08T06:36:44.669Z,61.27
2023-01-08T06:39:14.446Z,65.23
2023-01-08T06:41:45.677Z,62.53
2023-01-08T06:44:14.665Z,61.83
2023-01-08T06:46:43.643Z,57.90
2023-01-08T06:49:14.074Z,62.17
2023-01-08T06:51:44.715Z,58.97
2023-01-08T06:54:13.847Z,62.40
2023-01-08T06:56:52.963Z,59.37
2023-01-08T06:59:22.735Z,58.90
2023-01-08T07:01:52.033Z,58.80
2023-01-08T07:04:21.334Z,62.17
2023-01-08T07:06:51.730Z,54.83
2023-01-08T07:09:20.820Z,59.60
2023-01-08T07:11:49.749Z,63.60
2023-01-08T07:14:18.932Z,56.33
2023-01-08T07:16:47.865Z,56.47
2023-01-08T07:19:16.858Z,52.33
2023-01-08T07:21:46.225Z,57.20
2023-01-08T07:24:16.774Z,58.23
2023-01-08T07:26:45.887Z,50.17
2023-01-08T07:29:14.792Z,54.17
2023-01-08T07:31:43.778Z,54.83
2023-01-08T07:34:15.173Z,52.37
2023-01-08T07:36:44.574Z,70.40
2023-01-08T07:39:13.850Z,49.90
2023-01-08T07:41:44.855Z,54.97
2023-01-08T07:44:14.177Z,53.63
2023-01-08T07:46:43.297Z,56.83
2023-01-08T07:49:12.410Z,51.43
2023-01-08T07:51:41.560Z,49.23
2023-01-08T07:54:10.778Z,50.90
2023-01-08T07:56:39.848Z,63.07
2023-01-08T07:59:10.435Z,52.87
2023-01-08T08:01:39.848Z,50.93
2023-01-08T08:04:08.808Z,51.10
2023-01-08T08:06:37.888Z,50.60
2023-01-08T08:09:07.106Z,52.67
2023-01-08T08:11:36.211Z,54.40
2023-01-08T08:14:05.306Z,50.23
2023-01-08T08:16:35.947Z,53.23
2023-01-08T08:19:05.371Z,47.70
2023-01-08T08:21:34.396Z,46.23
2023-01-08T08:24:03.453Z,46.73
2023-01-08T08:26:32.823Z,46.27
2023-01-08T08:29:01.806Z,43.40
2023-01-08T08:31:31.400Z,40.60
2023-01-08T08:34:01.927Z,44.90
2023-01-08T08:36:31.354Z,42.47
2023-01-08T08:39:00.432Z,42.70
2023-01-08T08:41:29.644Z,42.27
2023-01-08T08:43:58.864Z,47.40
2023-01-08T08:46:27.877Z,50.17
2023-01-08T08:48:56.948Z,41.20
2023-01-08T08:51:27.575Z,41.77
2023-01-08T08:53:56.721Z,44.63
2023-01-08T08:56:25.886Z,41.03
2023-01-08T08:58:55.069Z,41.33
2023-01-08T09:01:24.453Z,37.10
2023-01-08T09:03:53.427Z,43.73
2023-01-08T09:06:22.494Z,38.80
2023-01-08T09:08:52.871Z,39.07
2023-01-08T09:11:21.972Z,33.20
2023-01-08T09:13:51.057Z,30.97
2023-01-08T09:16:20.116Z,33.43
2023-01-08T09:18:49.394Z,33.23
2023-01-08T09:21:18.366Z,32.80
2023-01-08T09:23:49.689Z,29.07
2023-01-08T09:26:20.275Z,30.83
2023-01-08T09:28:49.405Z,34.17
2023-01-08T09:31:18.403Z,30.77
2023-01-08T09:33:49.639Z,29.07
2023-01-08T09:36:18.908Z,30.33
2023-01-08T09:38:48.294Z,27.57
2023-01-08T09:41:23.145Z,28.33
2023-01-08T09:43:55.167Z,34.53
2023-01-08T09:46:27.857Z,37.90
2023-01-08T09:49:01.167Z,26.37
2023-01-08T09:51:35.924Z,26.57
2023-01-08T09:54:06.052Z,28.97
2023-01-08T09:56:37.260Z,28.83
2023-01-08T09:59:07.426Z,29.53
2023-01-08T10:01:39.456Z,31.07
2023-01-08T10:04:14.865Z,25.20
2023-01-08T10:06:50.629Z,30.70
2023-01-08T10:09:22.850Z,30.30
2023-01-08T10:11:54.908Z,33.17
2023-01-08T10:14:26.676Z,29.10
2023-01-08T10:16:59.619Z,33.23
2023-01-08T10:19:28.886Z,33.37
2023-01-08T10:22:00.566Z,33.43
2023-01-08T10:24:39.683Z,31.50
2023-01-08T10:27:15.224Z,49.03
2023-01-08T10:29:44.853Z,30.47
2023-01-08T10:32:17.837Z,33.50
2023-01-08T10:34:49.397Z,32.97
2023-01-08T10:37:30.145Z,31.93
2023-01-08T10:40:05.815Z,30.67
2023-01-08T10:42:38.013Z,34.50
2023-01-08T10:45:19.801Z,31.23
2023-01-08T10:47:50.823Z,31.40
2023-01-08T10:50:24.090Z,25.90
2023-01-08T10:52:58.045Z,28.33
2023-01-08T10:55:29.439Z,28.37
2023-01-08T10:58:01.685Z,30.23
2023-01-08T11:00:32.511Z,23.10
2023-01-08T11:03:04.281Z,25.73
2023-01-08T11:05:35.656Z,27.37
2023-01-08T11:08:07.789Z,48.70
2023-01-08T11:10:38.909Z,29.27
2023-01-08T11:13:18.086Z,27.83
2023-01-08T11:15:47.550Z,31.43
2023-01-08T11:18:21.834Z,28.23
2023-01-08T11:20:52.329Z,27.80
2023-01-08T11:23:24.004Z,37.17
2023-01-08T11:26:04.868Z,33.13
2023-01-08T11:28:45.635Z,32.43
2023-01-08T11:31:23.146Z,36.43
2023-01-08T11:33:57.424Z,39.80
2023-01-08T11:36:33.435Z,44.03
2023-01-08T11:39:02.616Z,38.20
2023-01-08T11:41:46.939Z,36.73
2023-01-08T11:44:33.188Z,34.40
2023-01-08T11:47:11.182Z,36.87
2023-01-08T11:50:01.471Z,40.23
2023-01-08T11:52:47.577Z,36.70
2023-01-08T11:55:34.425Z,42.30
2023-01-08T11:58:23.244Z,40.30
2023-01-08T12:01:09.295Z,37.60
2023-01-08T12:03:42.143Z,37.37
2023-01-08T12:06:23.871Z,38.43
2023-01-08T12:09:02.843Z,41.73
2023-01-08T12:11:38.017Z,39.10
2023-01-08T12:14:28.003Z,39.40
2023-01-08T12:17:13.895Z,49.50
2023-01-08T12:19:59.613Z,58.83
2023-01-08T12:22:43.053Z,45.27
2023-01-08T12:25:41.608Z,41.83
2023-01-08T12:28:23.453Z,40.70
2023-01-08T12:31:15.393Z,40.60
2023-01-08T12:33:51.319Z,38.47
2023-01-08T12:36:25.106Z,39.80
2023-01-08T12:38:57.266Z,35.13
2023-01-08T12:41:27.539Z,36.23
2023-01-08T12:44:02.854Z,35.17
2023-01-08T12:46:35.515Z,39.90
2023-01-08T12:49:08.121Z,38.73
2023-01-08T12:51:40.954Z,41.30
2023-01-08T12:54:21.251Z,53.43
2023-01-08T12:56:57.432Z,43.77
2023-01-08T12:59:37.002Z,33.30
2023-01-08T13:02:20.474Z,38.40
2023-01-08T13:04:51.128Z,35.43
2023-01-08T13:07:22.813Z,41.87
2023-01-08T13:09:58.936Z,41.87
2023-01-08T13:12:37.893Z,48.67
2023-01-08T13:15:08.662Z,38.67
2023-01-08T13:17:39.539Z,39.93
2023-01-08T13:20:11.241Z,39.00
2023-01-08T13:22:40.499Z,34.83
2023-01-08T13:25:31.601Z,38.20
2023-01-08T13:28:01.881Z,37.13
2023-01-08T13:30:38.801Z,35.67
2023-01-08T13:33:39.785Z,38.57
2023-01-08T13:36:25.709Z,39.50
2023-01-08T13:39:03.287Z,37.70
2023-01-08T13:41:34.530Z,43.83
2023-01-08T13:44:05.529Z,40.77
2023-01-08T13:46:41.104Z,41.07
2023-01-08T13:49:12.098Z,37.80
2023-01-08T13:51:45.024Z,32.10
2023-01-08T13:54:24.483Z,40.37
2023-01-08T13:56:56.562Z,32.27
2023-01-08T13:59:51.394Z,33.37
2023-01-08T14:02:31.701Z,35.53
2023-01-08T14:05:05.203Z,32.53
2023-01-08T14:07:41.394Z,29.83
2023-01-08T14:10:14.570Z,37.67
2023-01-08T14:12:44.517Z,33.50
2023-01-08T14:15:22.865Z,39.13
2023-01-08T14:17:53.333Z,42.43
2023-01-08T14:20:30.402Z,36.47
2023-01-08T14:23:01.661Z,45.93
2023-01-08T14:25:31.478Z,48.97
2023-01-08T14:28:03.048Z,54.20
2023-01-08T14:30:32.671Z,35.13
2023-01-08T14:33:02.457Z,40.47
2023-01-08T14:35:35.437Z,41.10
2023-01-08T14:38:06.439Z,46.07
2023-01-08T14:40:41.449Z,52.30
2023-01-08T14:43:12.901Z,44.70
2023-01-08T14:45:48.797Z,50.03
2023-01-08T14:48:23.882Z,54.83
2023-01-08T14:51:04.034Z,47.90
2023-01-08T14:53:38.149Z,50.43
2023-01-08T14:56:08.780Z,49.50
2023-01-08T14:58:42.190Z,46.90
2023-01-08T15:01:19.476Z,55.50
2023-01-08T15:04:10.718Z,57.30
2023-01-08T15:06:39.885Z,50.00
2023-01-08T15:09:23.142Z,45.20
2023-01-08T15:11:55.335Z,54.67
2023-01-08T15:14:26.045Z,48.40
2023-01-08T15:16:58.097Z,49.93
2023-01-08T15:19:29.199Z,57.30
2023-01-08T15:22:00.926Z,62.93
2023-01-08T15:24:33.588Z,50.37
2023-01-08T15:27:10.427Z,54.20
2023-01-08T15:29:42.143Z,55.33
2023-01-08T15:32:12.610Z,55.77
2023-01-08T15:34:42.189Z,51.93
2023-01-08T15:37:11.332Z,52.37
2023-01-08T15:39:42.115Z,61.60
2023-01-08T15:42:37.377Z,55.83
2023-01-08T15:45:08.556Z,69.87
2023-01-08T15:47:56.085Z,54.97
2023-01-08T15:50:26.031Z,57.57
2023-01-08T15:52:56.669Z,65.43
2023-01-08T15:55:27.414Z,64.80
2023-01-08T15:57:56.634Z,69.10
2023-01-08T16:00:26.157Z,67.03
2023-01-08T16:02:56.558Z,55.00
2023-01-08T16:05:27.784Z,59.03
2023-01-08T16:07:57.064Z,51.17
2023-01-08T16:10:29.328Z,48.50
2023-01-08T16:12:58.467Z,52.30
2023-01-08T16:15:28.952Z,57.37
2023-01-08T16:17:58.479Z,56.83
2023-01-08T16:20:27.879Z,60.10
2023-01-08T16:22:57.406Z,60.00
2023-01-08T16:25:28.180Z,61.03
2023-01-08T16:27:57.630Z,59.43
2023-01-08T16:30:28.197Z,54.40
2023-01-08T16:32:57.221Z,53.17
2023-01-08T16:35:26.291Z,49.50
2023-01-08T16:37:56.733Z,53.53
2023-01-08T16:40:27.155Z,55.00
2023-01-08T16:43:01.338Z,55.33
2023-01-08T16:45:30.541Z,57.87
2023-01-08T16:47:59.587Z,59.53
2023-01-08T16:50:28.869Z,57.50
2023-01-08T16:52:58.206Z,67.20
2023-01-08T16:55:28.870Z,60.10
2023-01-08T16:57:57.838Z,59.07
2023-01-08T17:00:27.157Z,74.00
2023-01-08T17:02:56.299Z,63.70
2023-01-08T17:05:25.548Z,57.67
2023-01-08T17:07:55.251Z,56.13
2023-01-08T17:10:24.836Z,45.87
2023-01-08T17:12:55.887Z,47.43
2023-01-08T17:15:24.923Z,40.53
2023-01-08T17:17:54.211Z,44.00
2023-01-08T17:20:24.251Z,51.07
2023-01-08T17:22:54.327Z,41.43
2023-01-08T17:25:23.815Z,32.93
2023-01-08T17:27:54.129Z,31.50
2023-01-08T17:30:24.893Z,32.30
2023-01-08T17:32:54.085Z,36.90
2023-01-08T17:35:23.023Z,49.53
2023-01-08T17:37:52.018Z,55.23
2023-01-08T17:40:21.186Z,75.70
2023-01-08T17:42:50.362Z,71.80
2023-01-08T17:45:19.465Z,63.23
2023-01-08T17:47:50.234Z,54.60
2023-01-08T17:50:20.854Z,50.37
2023-01-08T17:52:50.617Z,45.23
2023-01-08T17:55:20.385Z,37.10
2023-01-08T17:57:49.833Z,35.10
2023-01-08T18:00:20.176Z,32.37
2023-01-08T18:02:50.986Z,31.23
2023-01-08T18:05:19.957Z,30.87
2023-01-08T18:07:49.227Z,32.47
2023-01-08T18:10:18.608Z,33.17
2023-01-08T18:12:47.892Z,42.07
2023-01-08T18:15:39.652Z,57.83
2023-01-08T18:18:10.313Z,75.57
2023-01-08T18:20:58.213Z,94.33
2023-01-08T18:23:27.260Z,105.40
2023-01-08T18:25:56.422Z,112.93
2023-01-08T18:28:25.409Z,100.83
2023-01-08T18:30:54.406Z,87.50
2023-01-08T18:33:25.055Z,98.63
2023-01-08T18:35:54.142Z,82.30
2023-01-08T18:38:23.558Z,74.03
2023-01-08T18:40:53.514Z,70.63
2023-01-08T18:43:22.603Z,81.23
2023-01-08T18:45:51.652Z,145.10
2023-01-08T18:48:20.744Z,89.23
2023-01-08T18:50:51.800Z,68.17
2023-01-08T18:53:39.840Z,55.67
2023-01-08T18:56:10.630Z,52.37
2023-01-08T18:58:58.424Z,56.63
2023-01-08T19:01:28.041Z,40.70
2023-01-08T19:03:57.724Z,45.43
2023-01-08T19:06:28.251Z,55.57
2023-01-08T19:09:00.146Z,46.50
2023-01-08T19:11:30.639Z,41.40
2023-01-08T19:14:00.193Z,39.30
2023-01-08T19:16:29.518Z,37.20
2023-01-08T19:18:58.777Z,43.63
2023-01-08T19:21:29.375Z,43.33
2023-01-08T19:23:58.543Z,38.33
2023-01-08T19:26:27.441Z,42.67
2023-01-08T19:28:56.438Z,38.63
2023-01-08T19:31:25.515Z,34.37
2023-01-08T19:33:54.863Z,40.10
2023-01-08T19:36:26.213Z,33.70
2023-01-08T19:38:57.650Z,31.13
2023-01-08T19:41:43.918Z,29.43
2023-01-08T19:44:13.514Z,33.30
2023-01-08T19:46:42.686Z,28.13
2023-01-08T19:49:12.373Z,30.33
2023-01-08T19:51:41.546Z,29.67
2023-01-08T19:54:13.977Z,27.97
2023-01-08T19:56:43.141Z,32.30
2023-01-08T19:59:13.392Z,29.03
2023-01-08T20:01:43.380Z,29.80
2023-01-08T20:04:13.148Z,30.47
2023-01-08T20:06:42.185Z,30.77
2023-01-08T20:09:12.631Z,30.80
2023-01-08T20:11:41.726Z,31.67
2023-01-08T20:14:10.697Z,30.43
2023-01-08T20:16:39.812Z,30.70
2023-01-08T20:19:08.975Z,28.13
2023-01-08T20:21:38.803Z,32.13
2023-01-08T20:24:11.093Z,32.13
2023-01-08T20:26:42.168Z,41.10
2023-01-08T20:29:11.357Z,54.90
2023-01-08T20:31:41.078Z,66.30
2023-01-08T20:34:14.468Z,62.97
2023-01-08T20:36:44.806Z,69.97
2023-01-08T20:39:16.179Z,62.83
2023-01-08T20:41:55.444Z,62.13
2023-01-08T20:44:30.231Z,64.37
2023-01-08T20:46:59.568Z,60.83
2023-01-08T20:49:29.867Z,51.93
2023-01-08T20:52:00.349Z,56.17
2023-01-08T20:54:30.846Z,47.20
2023-01-08T20:57:02.230Z,47.87
2023-01-08T20:59:31.948Z,45.90
2023-01-08T21:02:01.489Z,47.97
2023-01-08T21:04:30.603Z,41.33
2023-01-08T21:06:59.766Z,43.77
2023-01-08T21:09:28.826Z,55.00
2023-01-08T21:11:57.839Z,43.77
2023-01-08T21:14:28.523Z,59.97
2023-01-08T21:16:57.909Z,35.07
2023-01-08T21:19:26.941Z,33.10
2023-01-08T21:21:56.238Z,41.67
2023-01-08T21:24:25.406Z,46.57
2023-01-08T21:26:54.449Z,51.27
2023-01-08T21:29:24.117Z,56.30
2023-01-08T21:31:55.335Z,56.37
2023-01-08T21:34:24.635Z,45.63
2023-01-08T21:36:53.670Z,55.40
2023-01-08T21:39:22.812Z,58.53
2023-01-08T21:42:09.094Z,58.37
2023-01-08T21:44:55.288Z,42.67
2023-01-08T21:47:25.936Z,45.30
2023-01-08T21:49:55.036Z,35.43
2023-01-08T21:52:41.081Z,30.13
2023-01-08T21:55:10.630Z,28.70
2023-01-08T21:57:42.665Z,29.00
2023-01-08T22:00:13.001Z,30.90
2023-01-08T22:02:44.079Z,32.60
2023-01-08T22:05:13.198Z,32.97
2023-01-08T22:07:42.314Z,32.20
2023-01-08T22:10:12.729Z,34.47
2023-01-08T22:12:42.254Z,35.13
2023-01-08T22:15:11.655Z,33.30
2023-01-08T22:17:40.542Z,29.37
2023-01-08T22:20:12.763Z,31.33
2023-01-08T22:22:42.967Z,29.73
2023-01-08T22:25:12.153Z,30.40
2023-01-08T22:27:41.352Z,33.83
2023-01-08T22:30:13.141Z,33.97
2023-01-08T22:32:42.261Z,33.27
2023-01-08T22:35:12.848Z,31.27
2023-01-08T22:37:43.842Z,30.37
2023-01-08T22:40:31.357Z,32.97
2023-01-08T22:43:00.404Z,38.17
2023-01-08T22:45:29.407Z,33.53
2023-01-08T22:47:58.740Z,39.13
2023-01-08T22:50:29.182Z,38.90
2023-01-08T22:52:58.462Z,39.57
2023-01-08T22:55:27.437Z,35.57
2023-01-08T22:57:56.481Z,35.80
2023-01-08T23:00:25.890Z,36.67
2023-01-08T23:02:54.935Z,32.43
2023-01-08T23:05:23.901Z,35.13
2023-01-08T23:07:54.768Z,45.27
2023-01-08T23:10:23.961Z,51.50
2023-01-08T23:12:53.679Z,62.70
2023-01-08T23:15:23.982Z,52.73
2023-01-08T23:17:53.104Z,46.83
2023-01-08T23:20:24.276Z,54.10
2023-01-08T23:22:55.906Z,46.60
2023-01-08T23:25:25.060Z,45.73
2023-01-08T23:27:54.265Z,42.80
2023-01-08T23:30:23.495Z,43.50
2023-01-08T23:32:53.210Z,41.53
2023-01-08T23:35:22.299Z,67.83
2023-01-08T23:37:51.289Z,65.03
2023-01-08T23:40:21.865Z,89.87
2023-01-08T23:42:50.996Z,76.60
2023-01-08T23:45:20.029Z,72.47
2023-01-08T23:47:49.092Z,59.37
2023-01-08T23:50:18.502Z,64.90
2023-01-08T23:52:47.435Z,75.23
2023-01-08T23:55:16.617Z,71.77
2023-01-08T23:57:47.206Z,72.23
